createdAt,value
2022-10-01T00:01:13.040Z,8.77
2022-10-01T00:03:40.809Z,8.95
2022-10-01T00:06:11.142Z,9.48
2022-10-01T00:08:40.231Z,9.32
2022-10-01T00:11:09.473Z,9.85
2022-10-01T00:13:38.234Z,9.90
2022-10-01T00:16:08.959Z,9.93
2022-10-01T00:18:38.024Z,10.25
2022-10-01T00:21:10.008Z,10.13
2022-10-01T00:23:38.298Z,10.18
2022-10-01T00:26:11.204Z,10.18
2022-10-01T00:28:38.796Z,10.10
2022-10-01T00:31:09.136Z,9.40
2022-10-01T00:33:37.317Z,10.50
2022-10-01T00:36:05.401Z,10.60
2022-10-01T00:41:01.548Z,9.35
2022-10-01T00:43:31.681Z,9.88
2022-10-01T00:46:05.193Z,10.55
2022-10-01T00:48:44.696Z,10.18
2022-10-01T00:51:14.030Z,12.07
2022-10-01T00:53:42.835Z,11.50
2022-10-01T00:56:10.434Z,10.50
2022-10-01T00:58:39.538Z,10.82
2022-10-01T01:01:07.413Z,10.45
2022-10-01T01:03:36.530Z,9.45
2022-10-01T01:06:08.067Z,10.15
2022-10-01T01:08:35.775Z,10.07
2022-10-01T01:11:13.108Z,9.25
2022-10-01T01:13:50.933Z,9.27
2022-10-01T01:16:24.667Z,10.00
2022-10-01T01:19:01.018Z,8.40
2022-10-01T01:21:32.817Z,8.73
2022-10-01T01:24:39.792Z,8.07
2022-10-01T01:27:20.377Z,7.80
2022-10-01T01:29:53.595Z,7.85
2022-10-01T01:32:27.357Z,7.85
2022-10-01T01:35:02.210Z,7.70
2022-10-01T01:40:03.535Z,7.15
2022-10-01T01:42:37.176Z,6.93
2022-10-01T01:45:10.821Z,7.50
2022-10-01T01:47:41.408Z,8.20
2022-10-01T01:50:10.940Z,7.63
2022-10-01T01:52:39.273Z,7.63
2022-10-01T01:55:08.483Z,8.18
2022-10-01T01:57:40.168Z,7.65
2022-10-01T02:00:11.968Z,8.15
2022-10-01T02:02:41.634Z,7.45
2022-10-01T02:05:15.604Z,7.10
2022-10-01T02:08:12.208Z,7.43
2022-10-01T02:10:54.256Z,6.50
2022-10-01T02:13:30.950Z,6.82
2022-10-01T02:16:07.299Z,6.78
2022-10-01T02:18:42.145Z,6.60
2022-10-01T02:23:45.008Z,5.60
2022-10-01T02:26:17.262Z,6.10
2022-10-01T02:28:46.917Z,5.32
2022-10-01T02:31:18.065Z,5.82
2022-10-01T02:33:48.037Z,5.65
2022-10-01T02:36:19.161Z,5.53
2022-10-01T02:38:50.716Z,4.65
2022-10-01T02:41:23.199Z,4.63
2022-10-01T02:43:55.895Z,4.65
2022-10-01T02:46:29.965Z,4.25
2022-10-01T02:49:00.481Z,4.18
2022-10-01T02:51:37.197Z,4.10
2022-10-01T02:54:09.866Z,3.92
2022-10-01T02:56:56.421Z,3.72
2022-10-01T02:59:24.157Z,4.25
2022-10-01T03:01:53.270Z,3.88
2022-10-01T03:04:20.917Z,4.15
2022-10-01T03:06:48.551Z,3.88
2022-10-01T03:09:16.162Z,4.72
2022-10-01T03:11:43.825Z,4.60
2022-10-01T03:14:11.741Z,4.43
2022-10-01T03:16:39.345Z,4.72
2022-10-01T03:19:08.338Z,4.95
2022-10-01T03:21:36.312Z,5.35
2022-10-01T03:24:04.735Z,4.68
2022-10-01T03:26:33.022Z,4.45
2022-10-01T03:29:00.677Z,4.78
2022-10-01T03:31:28.397Z,4.63
2022-10-01T03:33:57.901Z,5.45
2022-10-01T03:36:26.997Z,5.30
2022-10-01T03:38:54.640Z,5.03
2022-10-01T03:41:22.724Z,5.68
2022-10-01T03:46:18.078Z,5.50
2022-10-01T03:48:45.727Z,5.35
2022-10-01T03:51:17.787Z,5.22
2022-10-01T03:53:48.993Z,5.60
2022-10-01T03:56:17.386Z,6.10
2022-10-01T03:58:45.038Z,5.53
2022-10-01T04:01:12.835Z,6.10
2022-10-01T04:03:41.477Z,6.70
2022-10-01T04:06:09.141Z,6.78
2022-10-01T04:08:37.094Z,6.68
2022-10-01T04:11:06.283Z,7.15
2022-10-01T04:13:34.591Z,6.80
2022-10-01T04:16:02.715Z,6.90
2022-10-01T04:18:30.915Z,7.70
2022-10-01T04:20:58.838Z,7.30
2022-10-01T04:23:27.044Z,7.53
2022-10-01T04:25:54.876Z,8.20
2022-10-01T04:28:23.873Z,7.88
2022-10-01T04:31:12.094Z,8.65
2022-10-01T04:33:39.783Z,8.75
2022-10-01T04:36:07.656Z,10.02
2022-10-01T04:38:35.629Z,9.68
2022-10-01T04:41:03.274Z,8.70
2022-10-01T04:43:32.229Z,8.73
2022-10-01T04:45:59.870Z,9.27
2022-10-01T04:48:27.500Z,9.63
2022-10-01T04:50:55.077Z,10.32
2022-10-01T04:53:22.721Z,10.38
2022-10-01T04:55:50.325Z,9.90
2022-10-01T04:58:18.619Z,11.23
2022-10-01T05:00:47.649Z,9.75
2022-10-01T05:03:15.264Z,10.43
2022-10-01T05:05:42.874Z,11.05
2022-10-01T05:08:10.506Z,11.93
2022-10-01T05:10:38.262Z,11.55
2022-10-01T05:13:05.910Z,10.27
2022-10-01T05:15:33.552Z,11.50
2022-10-01T05:18:02.581Z,11.27
2022-10-01T05:20:30.392Z,10.88
2022-10-01T05:22:58.073Z,11.02
2022-10-01T05:25:25.699Z,10.50
2022-10-01T05:27:53.389Z,10.75
2022-10-01T05:30:23.895Z,11.32
2022-10-01T05:32:56.479Z,10.73
2022-10-01T05:35:25.837Z,10.68
2022-10-01T05:37:54.976Z,11.13
2022-10-01T05:40:24.331Z,11.65
2022-10-01T05:42:51.967Z,11.45
2022-10-01T05:45:22.880Z,11.05
2022-10-01T05:47:58.568Z,11.52
2022-10-01T05:50:28.709Z,10.88
2022-10-01T05:52:56.309Z,10.88
2022-10-01T05:55:24.534Z,10.48
2022-10-01T05:57:57.363Z,10.82
2022-10-01T06:00:26.541Z,10.50
2022-10-01T06:02:54.747Z,10.95
2022-10-01T06:05:22.941Z,10.38
2022-10-01T06:07:53.471Z,9.93
2022-10-01T06:10:22.896Z,9.90
2022-10-01T06:12:50.860Z,11.50
2022-10-01T06:17:46.871Z,10.05
2022-10-01T06:22:45.056Z,9.93
2022-10-01T06:25:15.169Z,9.45
2022-10-01T06:27:43.563Z,10.18
2022-10-01T06:30:12.181Z,9.98
2022-10-01T06:32:39.760Z,9.02
2022-10-01T06:35:07.732Z,9.50
2022-10-01T06:40:05.951Z,8.25
2022-10-01T06:42:34.904Z,8.75
2022-10-01T06:45:02.559Z,8.73
2022-10-01T06:47:30.244Z,7.78
2022-10-01T06:49:59.368Z,8.32
2022-10-01T06:52:44.612Z,8.27
2022-10-01T06:55:16.483Z,8.20
2022-10-01T06:57:45.996Z,8.23
2022-10-01T07:00:14.953Z,6.78
2022-10-01T07:02:42.978Z,7.05
2022-10-01T07:05:10.639Z,7.72
2022-10-01T07:07:39.264Z,8.00
2022-10-01T07:10:09.417Z,7.68
2022-10-01T07:12:37.700Z,7.57
2022-10-01T07:15:07.630Z,7.20
2022-10-01T07:17:35.701Z,6.97
2022-10-01T07:20:03.328Z,7.28
2022-10-01T07:22:30.935Z,7.10
2022-10-01T07:24:58.566Z,6.72
2022-10-01T07:27:26.456Z,7.53
2022-10-01T07:32:23.129Z,6.40
2022-10-01T07:34:51.566Z,6.47
2022-10-01T07:37:19.440Z,6.28
2022-10-01T07:42:14.548Z,5.80
2022-10-01T07:44:42.204Z,5.97
2022-10-01T07:47:10.017Z,6.25
2022-10-01T07:49:39.005Z,6.25
2022-10-01T07:52:10.932Z,5.95
2022-10-01T07:54:40.797Z,5.28
2022-10-01T07:57:08.474Z,5.47
2022-10-01T07:59:36.212Z,5.57
2022-10-01T08:02:03.906Z,5.40
2022-10-01T08:04:49.269Z,5.53
2022-10-01T08:07:18.277Z,5.55
2022-10-01T08:09:45.894Z,5.13
2022-10-01T08:12:13.484Z,5.40
2022-10-01T08:14:41.100Z,5.25
2022-10-01T08:17:08.703Z,5.38
2022-10-01T08:19:36.397Z,5.45
2022-10-01T08:22:04.061Z,6.03
2022-10-01T08:24:34.706Z,6.10
2022-10-01T08:27:02.374Z,5.57
2022-10-01T08:29:29.996Z,5.93
2022-10-01T08:31:58.503Z,5.78
2022-10-01T08:34:26.140Z,5.30
2022-10-01T08:36:53.808Z,5.75
2022-10-01T08:39:21.470Z,6.03
2022-10-01T08:41:59.243Z,5.55
2022-10-01T08:44:31.328Z,5.55
2022-10-01T08:47:04.864Z,5.45
2022-10-01T08:49:40.104Z,5.40
2022-10-01T08:52:15.046Z,5.13
2022-10-01T08:54:47.799Z,4.47
2022-10-01T08:57:20.570Z,4.28
2022-10-01T08:59:51.867Z,4.07
2022-10-01T09:02:22.471Z,3.67
2022-10-01T09:04:56.755Z,3.42
2022-10-01T09:07:46.374Z,3.47
2022-10-01T09:10:35.765Z,3.45
2022-10-01T09:13:30.185Z,3.50
2022-10-01T09:16:06.759Z,3.50
2022-10-01T09:19:03.668Z,3.53
2022-10-01T09:21:47.267Z,3.58
2022-10-01T09:24:17.062Z,3.53
2022-10-01T09:26:49.084Z,3.08
2022-10-01T09:29:29.502Z,2.78
2022-10-01T09:31:59.680Z,2.47
2022-10-01T09:34:34.961Z,2.60
2022-10-01T09:37:14.773Z,2.22
2022-10-01T09:39:51.232Z,2.20
2022-10-01T09:42:19.361Z,1.92
2022-10-01T09:44:48.329Z,1.85
2022-10-01T09:47:19.155Z,2.28
2022-10-01T09:49:47.169Z,2.75
2022-10-01T09:52:20.193Z,2.10
2022-10-01T09:54:52.057Z,1.58
2022-10-01T09:57:25.802Z,1.80
2022-10-01T10:00:03.643Z,1.80
2022-10-01T10:02:34.117Z,1.42
2022-10-01T10:05:02.602Z,1.80
2022-10-01T10:07:32.498Z,1.60
2022-10-01T10:10:10.067Z,1.35
2022-10-01T10:12:38.023Z,1.63
2022-10-01T10:15:16.463Z,1.33
2022-10-01T10:17:46.369Z,1.30
2022-10-01T10:20:25.671Z,1.50
2022-10-01T10:22:53.361Z,1.70
2022-10-01T10:27:55.580Z,1.65
2022-10-01T10:30:26.246Z,1.65
2022-10-01T10:32:55.489Z,1.70
2022-10-01T10:35:26.509Z,1.50
2022-10-01T10:37:57.212Z,1.55
2022-10-01T10:40:29.661Z,1.50
2022-10-01T10:42:59.642Z,1.70
2022-10-01T10:45:33.216Z,1.92
2022-10-01T10:48:04.547Z,1.10
2022-10-01T10:50:34.922Z,1.40
2022-10-01T10:53:13.526Z,1.52
2022-10-01T10:55:41.253Z,1.50
2022-10-01T10:58:12.051Z,1.77
2022-10-01T11:00:49.990Z,1.40
2022-10-01T11:03:21.279Z,1.42
2022-10-01T11:05:51.589Z,1.30
2022-10-01T11:08:22.531Z,1.42
2022-10-01T11:11:03.864Z,2.00
2022-10-01T11:13:46.565Z,1.40
2022-10-01T11:16:30.535Z,1.33
2022-10-01T11:19:16.109Z,1.30
2022-10-01T11:21:56.512Z,1.35
2022-10-01T11:24:40.599Z,0.95
2022-10-01T11:27:16.775Z,1.38
2022-10-01T11:29:55.750Z,1.70
2022-10-01T11:32:35.051Z,1.48
2022-10-01T11:35:19.511Z,1.50
2022-10-01T11:38:01.638Z,1.30
2022-10-01T11:40:34.243Z,2.03
2022-10-01T11:43:06.556Z,3.28
2022-10-01T11:45:39.233Z,1.88
2022-10-01T11:48:13.546Z,1.95
2022-10-01T11:53:16.251Z,1.52
2022-10-01T11:56:04.505Z,1.42
2022-10-01T11:58:54.009Z,1.10
2022-10-01T12:01:38.899Z,1.25
2022-10-01T12:04:18.332Z,1.20
2022-10-01T12:06:55.271Z,1.17
2022-10-01T12:09:30.256Z,1.23
2022-10-01T12:12:02.208Z,1.13
2022-10-01T12:14:34.794Z,1.15
2022-10-01T12:17:12.157Z,1.23
2022-10-01T12:19:46.498Z,1.70
2022-10-01T12:24:45.629Z,1.30
2022-10-01T12:27:30.285Z,1.20
2022-10-01T12:30:04.969Z,1.50
2022-10-01T12:32:44.788Z,1.27
2022-10-01T12:35:26.252Z,1.35
2022-10-01T12:38:08.986Z,1.35
2022-10-01T12:40:47.043Z,1.23
2022-10-01T12:43:47.595Z,1.35
2022-10-01T12:46:25.824Z,1.17
2022-10-01T12:49:02.192Z,1.08
2022-10-01T12:51:39.917Z,1.15
2022-10-01T12:54:23.975Z,1.00
2022-10-01T12:57:00.416Z,1.15
2022-10-01T12:59:50.092Z,1.40
2022-10-01T13:02:39.374Z,1.30
2022-10-01T13:05:20.994Z,1.40
2022-10-01T13:08:25.381Z,1.02
2022-10-01T13:11:05.437Z,1.83
2022-10-01T13:13:34.650Z,1.63
2022-10-01T13:16:08.729Z,1.20
2022-10-01T13:18:46.942Z,1.20
2022-10-01T13:21:23.131Z,1.25
2022-10-01T13:23:59.789Z,1.10
2022-10-01T13:26:33.311Z,1.30
2022-10-01T13:29:13.996Z,1.10
2022-10-01T13:31:56.813Z,1.52
2022-10-01T13:34:36.561Z,1.27
2022-10-01T13:37:15.844Z,1.33
2022-10-01T13:39:45.256Z,1.30
2022-10-01T13:42:24.189Z,1.38
2022-10-01T13:44:57.799Z,1.20
2022-10-01T13:47:26.658Z,1.35
2022-10-01T13:49:56.842Z,1.25
2022-10-01T13:52:25.200Z,1.30
2022-10-01T13:54:56.367Z,1.40
2022-10-01T13:57:30.177Z,1.10
2022-10-01T14:00:04.157Z,1.05
2022-10-01T14:02:35.608Z,1.40
2022-10-01T14:05:24.969Z,1.20
2022-10-01T14:07:57.637Z,1.35
2022-10-01T14:10:34.925Z,1.20
2022-10-01T14:13:22.049Z,1.17
2022-10-01T14:16:03.356Z,1.10
2022-10-01T14:18:35.430Z,1.10
2022-10-01T14:21:14.501Z,1.10
2022-10-01T14:23:52.299Z,1.20
2022-10-01T14:26:28.190Z,1.23
2022-10-01T14:29:04.944Z,1.40
2022-10-01T14:31:50.788Z,1.02
2022-10-01T14:34:43.897Z,1.00
2022-10-01T14:37:17.287Z,1.50
2022-10-01T14:39:45.451Z,1.08
2022-10-01T14:42:17.995Z,1.20
2022-10-01T14:44:47.233Z,0.95
2022-10-01T14:47:19.391Z,1.08
2022-10-01T14:49:47.170Z,1.48
2022-10-01T14:52:24.213Z,1.08
2022-10-01T14:54:59.503Z,1.10
2022-10-01T14:57:33.014Z,1.10
2022-10-01T15:00:06.018Z,1.20
2022-10-01T15:02:33.717Z,1.25
2022-10-01T15:05:01.478Z,1.50
2022-10-01T15:07:33.906Z,1.20
2022-10-01T15:10:09.284Z,1.35
2022-10-01T15:12:42.311Z,1.20
2022-10-01T15:15:19.436Z,1.20
2022-10-01T15:17:47.837Z,1.17
2022-10-01T15:20:16.871Z,1.13
2022-10-01T15:22:48.018Z,1.73
2022-10-01T15:25:21.650Z,1.17
2022-10-01T15:27:54.062Z,1.23
2022-10-01T15:30:22.014Z,1.25
2022-10-01T15:32:51.206Z,1.55
2022-10-01T15:35:22.024Z,1.20
2022-10-01T15:37:51.596Z,1.15
2022-10-01T15:40:27.181Z,1.38
2022-10-01T15:43:27.611Z,1.38
2022-10-01T15:46:21.151Z,1.17
2022-10-01T15:49:09.185Z,1.05
2022-10-01T15:51:37.436Z,1.27
2022-10-01T15:54:09.948Z,1.70
2022-10-01T15:56:41.656Z,0.93
2022-10-01T15:59:16.900Z,1.13
2022-10-01T16:01:45.972Z,1.10
2022-10-01T16:04:15.291Z,1.23
2022-10-01T16:06:45.978Z,1.00
2022-10-01T16:09:18.056Z,1.13
2022-10-01T16:11:53.990Z,1.08
2022-10-01T16:14:31.774Z,1.48
2022-10-01T16:17:27.887Z,1.65
2022-10-01T16:19:57.809Z,1.30
2022-10-01T16:22:27.582Z,1.40
2022-10-01T16:24:57.643Z,1.20
2022-10-01T16:27:28.044Z,1.20
2022-10-01T16:30:04.773Z,2.47
2022-10-01T16:32:34.886Z,1.88
2022-10-01T16:35:20.722Z,1.45
2022-10-01T16:37:50.161Z,1.70
2022-10-01T16:40:18.216Z,1.50
2022-10-01T16:42:46.766Z,1.52
2022-10-01T16:45:16.936Z,1.88
2022-10-01T16:47:46.691Z,1.80
2022-10-01T16:50:16.427Z,1.80
2022-10-01T16:52:44.164Z,2.20
2022-10-01T16:57:45.916Z,1.98
2022-10-01T17:02:42.898Z,1.88
2022-10-01T17:07:45.608Z,2.13
2022-10-01T17:10:13.920Z,1.73
2022-10-01T17:12:41.841Z,1.92
2022-10-01T17:15:13.781Z,1.45
2022-10-01T17:17:41.372Z,1.23
2022-10-01T17:20:09.837Z,1.30
2022-10-01T17:22:39.232Z,1.42
2022-10-01T17:25:08.169Z,1.30
2022-10-01T17:27:35.781Z,1.98
2022-10-01T17:30:03.518Z,1.75
2022-10-01T17:35:01.585Z,1.50
2022-10-01T17:37:29.187Z,1.35
2022-10-01T17:39:58.197Z,1.27
2022-10-01T17:42:25.912Z,1.50
2022-10-01T17:47:22.261Z,2.03
2022-10-01T17:49:49.831Z,2.30
2022-10-01T17:52:18.971Z,2.10
2022-10-01T17:54:46.773Z,1.73
2022-10-01T17:59:43.274Z,1.90
2022-10-01T18:02:36.462Z,1.67
2022-10-01T18:05:00.123Z,1.70
2022-10-01T18:07:27.758Z,1.52
2022-10-01T18:09:55.361Z,1.42
2022-10-01T18:12:24.385Z,1.77
2022-10-01T18:14:51.986Z,2.38
2022-10-01T18:17:19.589Z,2.22
2022-10-01T18:19:53.437Z,2.60
2022-10-01T18:22:22.074Z,2.55
2022-10-01T18:24:49.887Z,2.30
2022-10-01T18:27:17.561Z,2.50
2022-10-01T18:29:46.489Z,2.03
2022-10-01T18:32:19.942Z,1.80
2022-10-01T18:34:54.315Z,2.22
2022-10-01T18:37:33.947Z,2.03
2022-10-01T18:40:09.409Z,2.40
2022-10-01T18:42:46.943Z,2.38
2022-10-01T18:45:18.738Z,2.10
2022-10-01T18:47:57.994Z,2.25
2022-10-01T18:50:34.949Z,2.40
2022-10-01T18:53:24.774Z,2.17
2022-10-01T18:56:19.581Z,2.20
2022-10-01T19:01:30.808Z,2.47
2022-10-01T19:04:15.324Z,2.47
2022-10-01T19:06:56.311Z,2.40
2022-10-01T19:09:33.166Z,2.25
2022-10-01T19:12:15.425Z,2.13
2022-10-01T19:14:56.869Z,2.55
2022-10-01T19:17:43.863Z,1.80
2022-10-01T19:20:23.464Z,2.10
2022-10-01T19:23:04.327Z,2.03
2022-10-01T19:25:37.383Z,2.30
2022-10-01T19:28:19.737Z,2.30
2022-10-01T19:31:04.141Z,2.03
2022-10-01T19:33:39.170Z,2.22
2022-10-01T19:36:10.385Z,1.90
2022-10-01T19:38:40.476Z,2.05
2022-10-01T19:41:15.248Z,2.08
2022-10-01T19:43:48.870Z,1.90
2022-10-01T19:46:22.827Z,2.15
2022-10-01T19:48:57.120Z,2.50
2022-10-01T19:51:30.172Z,1.83
2022-10-01T19:54:01.120Z,2.22
2022-10-01T19:56:31.351Z,1.73
2022-10-01T19:59:01.809Z,2.30
2022-10-01T20:01:44.343Z,2.65
2022-10-01T20:04:26.499Z,2.25
2022-10-01T20:06:58.446Z,2.50
2022-10-01T20:09:29.222Z,2.72
2022-10-01T20:12:05.381Z,2.08
2022-10-01T20:15:05.817Z,2.30
2022-10-01T20:17:50.765Z,2.10
2022-10-01T20:20:25.198Z,1.83
2022-10-01T20:23:08.554Z,2.45
2022-10-01T20:25:46.677Z,1.98
2022-10-01T20:28:20.762Z,1.85
2022-10-01T20:30:58.577Z,2.05
2022-10-01T20:33:32.590Z,1.95
2022-10-01T20:36:11.988Z,2.15
2022-10-01T20:38:44.593Z,2.15
2022-10-01T20:41:15.796Z,2.03
2022-10-01T20:43:49.352Z,2.10
2022-10-01T20:46:22.670Z,2.20
2022-10-01T20:48:54.488Z,2.05
2022-10-01T20:51:32.155Z,1.95
2022-10-01T20:54:06.661Z,2.40
2022-10-01T20:56:39.884Z,2.22
2022-10-01T20:59:14.234Z,2.10
2022-10-01T21:01:50.131Z,2.33
2022-10-01T21:04:21.794Z,1.80
2022-10-01T21:06:54.999Z,2.22
2022-10-01T21:09:27.827Z,2.35
2022-10-01T21:11:59.442Z,2.30
2022-10-01T21:14:31.768Z,2.60
2022-10-01T21:17:14.572Z,2.47
2022-10-01T21:20:05.939Z,2.92
2022-10-01T21:22:51.850Z,2.22
2022-10-01T21:25:29.156Z,3.10
2022-10-01T21:28:10.348Z,2.40
2022-10-01T21:30:52.947Z,2.53
2022-10-01T21:33:26.980Z,2.45
2022-10-01T21:35:59.739Z,2.80
2022-10-01T21:38:32.773Z,2.35
2022-10-01T21:41:24.126Z,2.50
2022-10-01T21:44:11.845Z,2.78
2022-10-01T21:46:43.484Z,2.50
2022-10-01T21:49:21.357Z,2.63
2022-10-01T21:52:00.038Z,3.20
2022-10-01T21:54:46.013Z,2.83
2022-10-01T21:57:34.055Z,2.60
2022-10-01T22:00:17.725Z,2.80
2022-10-01T22:02:56.959Z,2.22
2022-10-01T22:05:32.981Z,3.13
2022-10-01T22:08:14.518Z,3.40
2022-10-01T22:10:46.902Z,2.83
2022-10-01T22:13:18.471Z,3.60
2022-10-01T22:15:48.235Z,3.10
2022-10-01T22:18:21.558Z,2.70
2022-10-01T22:20:50.070Z,2.85
2022-10-01T22:23:19.371Z,2.78
2022-10-01T22:25:54.382Z,3.00
2022-10-01T22:28:26.873Z,3.10
2022-10-01T22:30:58.088Z,3.22
2022-10-01T22:33:32.256Z,3.22
2022-10-01T22:36:06.608Z,2.97
2022-10-01T22:38:40.575Z,3.25
2022-10-01T22:41:14.772Z,3.40
2022-10-01T22:43:43.076Z,3.17
2022-10-01T22:46:43.134Z,2.90
2022-10-01T22:49:27.589Z,3.40
2022-10-01T22:52:10.191Z,3.17
2022-10-01T22:54:49.760Z,2.47
2022-10-01T22:57:30.839Z,1.92
2022-10-01T23:00:04.882Z,1.98
2022-10-01T23:02:38.591Z,2.25
2022-10-01T23:05:15.749Z,2.22
2022-10-01T23:07:50.714Z,2.05
2022-10-01T23:10:25.625Z,2.28
2022-10-01T23:13:05.320Z,2.25
2022-10-01T23:15:41.468Z,2.45
2022-10-01T23:18:24.682Z,2.47
2022-10-01T23:21:08.261Z,2.33
2022-10-01T23:23:36.064Z,2.03
2022-10-01T23:26:19.368Z,2.40
2022-10-01T23:29:01.319Z,2.33
2022-10-01T23:31:35.664Z,2.17
2022-10-01T23:34:19.692Z,2.45
2022-10-01T23:36:50.038Z,2.10
2022-10-01T23:39:42.038Z,2.30
2022-10-01T23:42:27.005Z,2.40
2022-10-01T23:45:05.941Z,2.25
2022-10-01T23:47:40.943Z,2.15
2022-10-01T23:50:20.881Z,2.08
2022-10-01T23:52:58.465Z,1.75
2022-10-01T23:56:10.466Z,2.03
2022-10-01T23:58:46.123Z,1.80
